Terminal Aerodrome Forecast
Issued by NWS Buffalo, NY

Home | Current Version | Previous Version | Text Only | Print | Product List | Glossary On
Versions: 1 2 3 4 5 6 7 8 9 10 11 12 13 14 15 16 17 18 19 20 21 22 23 24 25 26
181
FTUS41 KBUF 271744
TAFART
TAF
KART 271744Z 2718/2818 24015G25KT P6SM BKN080
     FM272000 24011KT P6SM SCT250
     FM280000 VRB03KT P6SM SCT250
     FM280300 VRB03KT P6SM SCT080
     FM280600 00000KT P6SM BKN060
     FM281400 14005KT P6SM BKN130=

USA.gov is the U.S. government's official web portal to all federal, state and local government web resources and services.